createdAt,value
2023-04-22T00:02:24.444Z,8.03
2023-04-22T00:04:52.380Z,7.93
2023-04-22T00:07:21.035Z,7.93
2023-04-22T00:09:48.868Z,7.89
2023-04-22T00:12:16.659Z,8.17
2023-04-22T00:14:44.367Z,7.91
2023-04-22T00:17:12.387Z,7.80
2023-04-22T00:19:43.909Z,7.73
2023-04-22T00:22:11.630Z,7.64
2023-04-22T00:24:39.377Z,7.65
2023-04-22T00:27:08.143Z,7.55
2023-04-22T00:29:36.228Z,7.46
2023-04-22T00:32:04.311Z,7.37
2023-04-22T00:34:32.041Z,7.13
2023-04-22T00:37:01.374Z,7.30
2023-04-22T00:39:29.265Z,7.40
2023-04-22T00:41:57.284Z,7.44
2023-04-22T00:44:26.432Z,7.39
2023-04-22T00:46:54.392Z,7.34
2023-04-22T00:49:23.317Z,7.24
2023-04-22T00:51:51.100Z,7.14
2023-04-22T00:54:20.332Z,7.25
2023-04-22T00:56:48.228Z,7.12
2023-04-22T00:59:16.299Z,7.10
2023-04-22T01:01:44.525Z,7.10
2023-04-22T01:04:14.388Z,7.13
2023-04-22T01:06:44.338Z,7.02
2023-04-22T01:09:12.287Z,7.07
2023-04-22T01:11:41.826Z,6.93
2023-04-22T01:14:09.655Z,6.94
2023-04-22T01:16:39.449Z,7.07
2023-04-22T01:19:08.227Z,7.08
2023-04-22T01:21:37.595Z,6.95
2023-04-22T01:24:07.679Z,6.93
2023-04-22T01:26:35.725Z,6.96
2023-04-22T01:29:04.239Z,7.00
2023-04-22T01:31:32.398Z,6.98
2023-04-22T01:34:00.657Z,6.97
2023-04-22T01:36:29.032Z,6.92
2023-04-22T01:38:57.749Z,6.89
2023-04-22T01:41:27.043Z,6.85
2023-04-22T01:43:55.251Z,6.60
2023-04-22T01:46:23.062Z,6.70
2023-04-22T01:48:51.838Z,6.70
2023-04-22T01:51:21.372Z,6.76
2023-04-22T01:53:50.330Z,6.91
2023-04-22T01:56:18.558Z,6.77
2023-04-22T01:58:47.742Z,6.86
2023-04-22T02:01:15.807Z,6.79
2023-04-22T02:03:43.650Z,6.77
2023-04-22T02:06:11.540Z,6.72
2023-04-22T02:08:39.378Z,6.62
2023-04-22T02:11:07.335Z,6.61
2023-04-22T02:13:39.382Z,6.67
2023-04-22T02:16:09.499Z,6.60
2023-04-22T02:18:37.838Z,6.55
2023-04-22T02:21:05.652Z,6.58
2023-04-22T02:23:33.602Z,6.49
2023-04-22T02:26:01.676Z,6.52
2023-04-22T02:28:29.420Z,6.62
2023-04-22T02:30:57.261Z,6.57
2023-04-22T02:33:26.559Z,6.47
2023-04-22T02:35:54.365Z,6.36
2023-04-22T02:38:22.138Z,6.17
2023-04-22T02:40:49.868Z,6.22
2023-04-22T02:43:17.593Z,6.15
2023-04-22T02:45:45.395Z,6.15
2023-04-22T02:48:13.141Z,6.14
2023-04-22T02:50:42.366Z,6.31
2023-04-22T02:53:10.817Z,6.29
2023-04-22T02:55:40.223Z,6.28
2023-04-22T02:58:08.850Z,6.19
2023-04-22T03:00:36.831Z,6.10
2023-04-22T03:03:05.361Z,6.01
2023-04-22T03:05:33.272Z,5.93
2023-04-22T03:08:02.392Z,5.90
2023-04-22T03:10:30.224Z,5.95
2023-04-22T03:12:57.994Z,5.85
2023-04-22T03:15:25.774Z,5.79
2023-04-22T03:17:53.619Z,5.95
2023-04-22T03:20:21.829Z,5.91
2023-04-22T03:22:49.634Z,5.98
2023-04-22T03:25:18.896Z,5.85
2023-04-22T03:27:46.687Z,5.61
2023-04-22T03:30:14.624Z,5.80
2023-04-22T03:32:42.419Z,5.88
2023-04-22T03:35:10.697Z,5.88
2023-04-22T03:37:38.419Z,5.95
2023-04-22T03:40:08.479Z,6.08
2023-04-22T03:42:37.665Z,6.05
2023-04-22T03:45:06.403Z,5.94
2023-04-22T03:47:34.509Z,5.85
2023-04-22T03:50:02.252Z,5.88
2023-04-22T03:52:29.993Z,5.82
2023-04-22T03:54:58.108Z,5.88
2023-04-22T03:57:27.948Z,5.93
2023-04-22T03:59:57.134Z,5.91
2023-04-22T04:02:25.035Z,5.83
2023-04-22T04:04:53.011Z,5.91
2023-04-22T04:07:21.164Z,5.85
2023-04-22T04:09:48.897Z,5.94
2023-04-22T04:12:16.719Z,5.81
2023-04-22T04:14:44.467Z,5.79
2023-04-22T04:17:14.120Z,5.77
2023-04-22T04:19:42.319Z,5.73
2023-04-22T04:22:11.200Z,5.76
2023-04-22T04:24:41.891Z,5.73
2023-04-22T04:27:09.934Z,5.74
2023-04-22T04:29:37.936Z,5.74
2023-04-22T04:32:06.764Z,5.75
2023-04-22T04:34:37.714Z,5.83
2023-04-22T04:37:05.540Z,5.80
2023-04-22T04:39:34.001Z,5.79
2023-04-22T04:42:01.757Z,5.86
2023-04-22T04:44:31.744Z,5.82
2023-04-22T04:46:59.605Z,5.81
2023-04-22T04:49:30.710Z,5.79
2023-04-22T04:51:59.993Z,5.84
2023-04-22T04:54:27.901Z,5.93
2023-04-22T04:56:57.366Z,5.97
2023-04-22T04:59:25.307Z,5.98
2023-04-22T05:01:53.248Z,6.02
2023-04-22T05:04:21.403Z,6.25
2023-04-22T05:06:49.526Z,6.22
2023-04-22T05:09:18.677Z,6.25
2023-04-22T05:11:46.644Z,6.37
2023-04-22T05:14:14.425Z,6.47
2023-04-22T05:16:42.640Z,6.50
2023-04-22T05:19:10.388Z,6.53
2023-04-22T05:21:38.118Z,6.47
2023-04-22T05:24:06.206Z,6.28
2023-04-22T05:26:35.436Z,6.28
2023-04-22T05:29:03.195Z,6.37
2023-04-22T05:31:31.081Z,6.45
2023-04-22T05:33:58.949Z,6.39
2023-04-22T05:36:30.552Z,6.55
2023-04-22T05:38:59.115Z,6.65
2023-04-22T05:41:27.278Z,6.78
2023-04-22T05:43:56.412Z,6.96
2023-04-22T05:46:24.230Z,7.13
2023-04-22T05:48:52.137Z,7.23
2023-04-22T05:51:20.099Z,7.31
2023-04-22T05:53:47.868Z,7.22
2023-04-22T05:56:15.629Z,7.17
2023-04-22T05:58:43.401Z,7.19
2023-04-22T06:01:12.640Z,7.27
2023-04-22T06:03:40.886Z,7.43
2023-04-22T06:06:09.621Z,7.59
2023-04-22T06:08:37.449Z,7.70
2023-04-22T06:11:05.393Z,7.68
2023-04-22T06:13:33.202Z,7.66
2023-04-22T06:16:01.430Z,7.87
2023-04-22T06:18:32.339Z,8.04
2023-04-22T06:21:00.143Z,8.31
2023-04-22T06:23:28.005Z,8.47
2023-04-22T06:25:55.787Z,8.23
2023-04-22T06:28:23.598Z,8.34
2023-04-22T06:30:51.455Z,8.59
2023-04-22T06:33:19.284Z,9.07
2023-04-22T06:35:48.521Z,9.47
2023-04-22T06:38:16.598Z,9.76
2023-04-22T06:40:44.520Z,9.60
2023-04-22T06:43:12.287Z,9.84
2023-04-22T06:45:39.981Z,10.13
2023-04-22T06:48:07.746Z,10.03
2023-04-22T06:50:35.528Z,10.21
2023-04-22T06:53:04.828Z,10.31
2023-04-22T06:55:32.568Z,10.56
2023-04-22T06:58:00.419Z,11.17
2023-04-22T07:00:28.192Z,11.55
2023-04-22T07:02:56.099Z,11.62
2023-04-22T07:05:23.996Z,11.90
2023-04-22T07:07:52.044Z,12.20
2023-04-22T07:10:21.404Z,13.02
2023-04-22T07:12:49.327Z,13.63
2023-04-22T07:15:17.295Z,13.67
2023-04-22T07:17:45.056Z,14.62
2023-04-22T07:20:13.088Z,14.09
2023-04-22T07:22:40.899Z,14.24
2023-04-22T07:25:09.224Z,14.84
2023-04-22T07:27:38.714Z,15.00
2023-04-22T07:30:08.891Z,14.93
2023-04-22T07:32:36.703Z,15.14
2023-04-22T07:35:04.637Z,15.85
2023-04-22T07:37:32.416Z,15.84
2023-04-22T07:40:00.285Z,16.35
2023-04-22T07:42:28.179Z,16.78
2023-04-22T07:44:57.392Z,17.33
2023-04-22T07:47:25.165Z,17.22
2023-04-22T07:49:53.028Z,16.49
2023-04-22T07:52:21.067Z,16.34
2023-04-22T07:54:48.792Z,16.75
2023-04-22T07:57:16.602Z,17.00
2023-04-22T07:59:44.312Z,16.49
2023-04-22T08:02:13.588Z,16.60
2023-04-22T08:04:41.372Z,16.76
2023-04-22T08:07:30.399Z,17.35
2023-04-22T08:09:57.110Z,17.21
2023-04-22T08:12:25.156Z,17.81
2023-04-22T08:14:52.920Z,18.00
2023-04-22T08:17:22.957Z,17.75
2023-04-22T08:19:50.973Z,19.09
2023-04-22T08:22:18.947Z,17.50
2023-04-22T08:24:46.780Z,18.00
2023-04-22T08:27:14.614Z,18.19
2023-04-22T08:29:42.718Z,19.42
2023-04-22T08:32:10.965Z,18.96
2023-04-22T08:34:40.360Z,18.70
2023-04-22T08:37:09.122Z,19.12
2023-04-22T08:39:37.122Z,18.26
2023-04-22T08:42:05.349Z,19.26
2023-04-22T08:44:33.208Z,19.06
2023-04-22T08:47:03.060Z,18.83
2023-04-22T08:49:31.936Z,18.88
2023-04-22T08:52:01.242Z,19.46
2023-04-22T08:54:29.180Z,20.10
2023-04-22T08:56:58.085Z,21.39
2023-04-22T08:59:25.972Z,20.21
2023-04-22T09:01:56.455Z,19.97
2023-04-22T09:04:24.676Z,20.22
2023-04-22T09:06:52.520Z,19.93
2023-04-22T09:09:22.320Z,20.96
2023-04-22T09:11:50.232Z,20.04
2023-04-22T09:14:18.325Z,21.65
2023-04-22T09:16:48.882Z,22.16
2023-04-22T09:19:16.724Z,22.11
2023-04-22T09:21:45.908Z,21.09
2023-04-22T09:24:15.487Z,21.13
2023-04-22T09:26:44.716Z,21.65
2023-04-22T09:29:15.884Z,21.26
2023-04-22T09:31:43.818Z,21.26
2023-04-22T09:34:11.582Z,22.03
2023-04-22T09:36:39.458Z,22.86
2023-04-22T09:39:08.831Z,22.55
2023-04-22T09:41:38.612Z,23.11
2023-04-22T09:44:11.275Z,24.47
2023-04-22T09:46:39.083Z,23.15
2023-04-22T09:49:06.795Z,22.71
2023-04-22T09:51:34.571Z,22.84
2023-04-22T09:54:06.258Z,23.38
2023-04-22T09:56:48.556Z,24.28
2023-04-22T09:59:22.021Z,24.71
2023-04-22T10:01:51.127Z,25.39
2023-04-22T10:04:21.691Z,25.41
2023-04-22T10:06:50.007Z,25.93
2023-04-22T10:09:20.031Z,24.70
2023-04-22T10:11:48.912Z,25.36
2023-04-22T10:14:18.349Z,25.32
2023-04-22T10:16:48.208Z,25.32
2023-04-22T10:19:18.595Z,23.68
2023-04-22T10:21:48.561Z,25.52
2023-04-22T10:24:18.165Z,25.65
2023-04-22T10:26:50.742Z,25.18
2023-04-22T10:29:21.146Z,24.13
2023-04-22T10:31:57.326Z,26.47
2023-04-22T10:34:25.510Z,27.34
2023-04-22T10:36:58.767Z,27.53
2023-04-22T10:39:28.135Z,26.79
2023-04-22T10:42:05.263Z,27.65
2023-04-22T10:44:49.419Z,26.88
2023-04-22T10:47:28.197Z,27.67
2023-04-22T10:50:18.101Z,28.76
2023-04-22T10:52:49.575Z,30.16
2023-04-22T10:55:18.002Z,29.08
2023-04-22T10:57:47.597Z,27.49
2023-04-22T11:03:19.054Z,28.47
2023-04-22T11:05:47.291Z,29.05
2023-04-22T11:08:20.556Z,27.49
2023-04-22T11:10:50.276Z,28.07
2023-04-22T11:13:20.589Z,28.90
2023-04-22T11:15:51.436Z,27.94
2023-04-22T11:18:21.809Z,28.33
2023-04-22T11:20:50.942Z,28.81
2023-04-22T11:23:23.522Z,27.29
2023-04-22T11:25:56.209Z,27.59
2023-04-22T11:28:24.324Z,28.47
2023-04-22T11:30:53.772Z,28.60
2023-04-22T11:33:21.620Z,26.02
2023-04-22T11:35:51.618Z,26.62
2023-04-22T11:38:19.394Z,28.20
2023-04-22T11:40:47.835Z,28.35
2023-04-22T11:43:16.132Z,30.61
2023-04-22T11:45:43.956Z,29.16
2023-04-22T11:48:13.704Z,27.27
2023-04-22T11:50:44.115Z,27.22
2023-04-22T11:53:17.428Z,29.16
2023-04-22T11:55:47.024Z,28.88
2023-04-22T11:58:16.023Z,29.43
2023-04-22T12:00:45.385Z,28.00
2023-04-22T12:03:19.735Z,27.40
2023-04-22T12:05:48.543Z,27.57
2023-04-22T12:08:17.621Z,27.70
2023-04-22T12:10:47.425Z,26.55
2023-04-22T12:13:21.921Z,29.65
2023-04-22T12:15:54.247Z,29.69
2023-04-22T12:18:31.496Z,28.72
2023-04-22T12:21:09.238Z,26.79
2023-04-22T12:23:43.476Z,23.55
2023-04-22T12:26:11.321Z,24.18
2023-04-22T12:28:39.903Z,23.17
2023-04-22T12:31:08.591Z,23.03
2023-04-22T12:33:39.067Z,22.93
2023-04-22T12:36:07.531Z,22.72
2023-04-22T12:38:36.197Z,22.32
2023-04-22T12:41:04.281Z,22.45
2023-04-22T12:43:35.204Z,21.38
2023-04-22T12:46:03.056Z,22.20
2023-04-22T12:48:31.396Z,22.93
2023-04-22T12:51:00.790Z,22.99
2023-04-22T12:53:29.231Z,22.87
2023-04-22T12:55:58.360Z,22.66
2023-04-22T12:58:28.098Z,22.85
2023-04-22T13:00:55.895Z,22.90
2023-04-22T13:03:24.359Z,22.90
2023-04-22T13:05:53.097Z,21.96
2023-04-22T13:08:22.293Z,21.31
2023-04-22T13:10:50.430Z,21.71
2023-04-22T13:13:19.487Z,21.61
2023-04-22T13:15:50.079Z,21.43
2023-04-22T13:18:18.023Z,21.22
2023-04-22T13:20:46.291Z,21.12
2023-04-22T13:23:14.888Z,21.49
2023-04-22T13:25:44.069Z,21.63
2023-04-22T13:28:12.516Z,21.03
2023-04-22T13:30:40.405Z,21.18
2023-04-22T13:33:08.378Z,21.03
2023-04-22T13:35:36.657Z,20.68
2023-04-22T13:38:05.142Z,20.56
2023-04-22T13:40:33.104Z,20.38
2023-04-22T13:43:02.298Z,19.74
2023-04-22T13:45:30.464Z,19.70
2023-04-22T13:47:58.338Z,19.47
2023-04-22T13:50:26.153Z,19.37
2023-04-22T13:52:54.170Z,19.58
2023-04-22T13:55:21.928Z,19.49
2023-04-22T13:57:51.768Z,19.22
2023-04-22T14:00:22.042Z,19.54
2023-04-22T14:02:50.096Z,19.34
2023-04-22T14:05:18.194Z,19.48
2023-04-22T14:07:46.030Z,19.60
2023-04-22T14:10:13.994Z,19.73
2023-04-22T14:12:42.231Z,19.71
2023-04-22T14:15:11.547Z,19.99
2023-04-22T14:17:41.417Z,19.95
2023-04-22T14:20:11.138Z,19.84
2023-04-22T14:22:39.017Z,19.76
2023-04-22T14:25:08.256Z,19.55
2023-04-22T14:27:36.099Z,19.57
2023-04-22T14:30:05.005Z,19.72
2023-04-22T14:32:33.196Z,19.23
2023-04-22T14:35:03.102Z,19.49
2023-04-22T14:37:31.797Z,19.24
2023-04-22T14:39:59.712Z,18.83
2023-04-22T14:42:28.252Z,19.03
2023-04-22T14:44:56.216Z,18.84
2023-04-22T14:47:24.561Z,18.61
2023-04-22T14:49:52.600Z,18.41
2023-04-22T14:52:22.032Z,18.32
2023-04-22T14:54:51.822Z,18.29
2023-04-22T14:57:20.043Z,18.00
2023-04-22T14:59:47.774Z,17.85
2023-04-22T15:02:17.001Z,17.99
2023-04-22T15:04:45.384Z,18.10
2023-04-22T15:07:13.117Z,17.98
2023-04-22T15:09:42.619Z,17.89
2023-04-22T15:12:10.849Z,17.85
2023-04-22T15:14:39.872Z,18.11
2023-04-22T15:17:07.753Z,17.94
2023-04-22T15:19:35.604Z,18.20
2023-04-22T15:22:03.532Z,18.51
2023-04-22T15:24:31.732Z,18.49
2023-04-22T15:27:01.277Z,18.63
2023-04-22T15:29:29.416Z,18.53
2023-04-22T15:31:57.925Z,18.38
2023-04-22T15:34:26.081Z,18.64
2023-04-22T15:36:54.422Z,18.39
2023-04-22T15:39:22.444Z,18.57
2023-04-22T15:41:50.415Z,18.54
2023-04-22T15:44:19.592Z,18.75
2023-04-22T15:46:47.628Z,18.64
2023-04-22T15:49:16.644Z,18.31
2023-04-22T15:51:44.553Z,18.22
2023-04-22T15:54:13.862Z,17.97
2023-04-22T15:56:41.749Z,17.85
2023-04-22T15:59:09.636Z,17.69
2023-04-22T16:01:40.564Z,17.92
2023-04-22T16:04:08.905Z,17.84
2023-04-22T16:06:38.128Z,17.33
2023-04-22T16:09:06.060Z,17.28
2023-04-22T16:11:34.051Z,17.26
2023-04-22T16:14:01.752Z,17.13
2023-04-22T16:16:29.642Z,17.09
2023-04-22T16:18:59.542Z,16.88
2023-04-22T16:21:28.714Z,16.67
2023-04-22T16:23:56.499Z,16.42
2023-04-22T16:26:24.400Z,16.41
2023-04-22T16:28:52.212Z,16.41
2023-04-22T16:31:22.923Z,16.30
2023-04-22T16:33:51.348Z,16.30
2023-04-22T16:36:20.515Z,16.41
2023-04-22T16:38:48.300Z,16.49
2023-04-22T16:41:16.247Z,16.70
2023-04-22T16:43:44.133Z,16.66
2023-04-22T16:46:11.941Z,16.73
2023-04-22T16:48:39.805Z,16.54
2023-04-22T16:51:07.731Z,16.38
2023-04-22T16:53:37.211Z,16.53
2023-04-22T16:56:05.849Z,16.46
2023-04-22T16:58:33.639Z,16.25
2023-04-22T17:01:01.532Z,16.26
2023-04-22T17:03:29.559Z,16.21
2023-04-22T17:05:57.450Z,16.24
2023-04-22T17:08:25.352Z,16.03
2023-04-22T17:10:54.540Z,15.81
2023-04-22T17:13:22.354Z,15.71
2023-04-22T17:15:50.333Z,15.84
2023-04-22T17:18:18.175Z,15.52
2023-04-22T17:20:46.073Z,15.61
2023-04-22T17:23:13.916Z,15.57
2023-04-22T17:25:41.659Z,15.57
2023-04-22T17:28:11.542Z,15.65
2023-04-22T17:30:39.609Z,15.56
2023-04-22T17:33:07.447Z,15.43
2023-04-22T17:35:35.233Z,15.38
2023-04-22T17:38:03.008Z,15.39
2023-04-22T17:40:30.953Z,15.25
2023-04-22T17:42:58.839Z,15.36
2023-04-22T17:45:28.049Z,15.27
2023-04-22T17:47:55.821Z,15.18
2023-04-22T17:50:23.912Z,15.20
2023-04-22T17:52:51.819Z,15.03
2023-04-22T17:55:19.961Z,14.80
2023-04-22T17:57:47.738Z,14.89
2023-04-22T18:00:17.990Z,14.98
2023-04-22T18:02:47.757Z,14.96
2023-04-22T18:05:15.702Z,14.94
2023-04-22T18:07:43.460Z,14.70
2023-04-22T18:10:12.733Z,14.76
2023-04-22T18:12:41.293Z,14.87
2023-04-22T18:15:09.838Z,14.88
2023-04-22T18:17:37.636Z,14.75
2023-04-22T18:20:17.443Z,14.71
2023-04-22T18:22:47.532Z,14.60
2023-04-22T18:25:15.433Z,14.66
2023-04-22T18:27:43.149Z,14.56
2023-04-22T18:30:11.545Z,14.60
2023-04-22T18:32:39.665Z,14.60
2023-04-22T18:35:10.512Z,14.44
2023-04-22T18:37:38.322Z,14.36
2023-04-22T18:40:07.387Z,14.24
2023-04-22T18:42:35.331Z,14.18
2023-04-22T18:45:04.873Z,14.20
2023-04-22T18:47:33.265Z,14.20
2023-04-22T18:50:01.338Z,14.14
2023-04-22T18:52:30.585Z,14.03
2023-04-22T18:54:58.426Z,14.03
2023-04-22T18:57:26.468Z,14.14
2023-04-22T18:59:54.994Z,14.00
2023-04-22T19:02:22.927Z,14.01
2023-04-22T19:04:51.011Z,14.00
2023-04-22T19:07:18.799Z,14.16
2023-04-22T19:09:47.958Z,14.00
2023-04-22T19:12:18.825Z,13.84
2023-04-22T19:14:47.807Z,13.80
2023-04-22T19:17:15.670Z,13.65
2023-04-22T19:19:44.353Z,13.44
2023-04-22T19:22:13.263Z,13.33
2023-04-22T19:24:41.139Z,13.39
2023-04-22T19:27:12.522Z,13.24
2023-04-22T19:29:41.580Z,13.33
2023-04-22T19:32:10.958Z,13.34
2023-04-22T19:34:39.788Z,13.28
2023-04-22T19:37:08.222Z,13.39
2023-04-22T19:39:36.425Z,13.25
2023-04-22T19:42:04.329Z,13.44
2023-04-22T19:44:33.671Z,13.23
2023-04-22T19:47:01.920Z,13.29
2023-04-22T19:49:32.420Z,13.15
2023-04-22T19:52:02.847Z,13.15
2023-04-22T19:54:31.406Z,13.25
2023-04-22T19:56:59.677Z,13.27
2023-04-22T19:59:31.645Z,13.28
2023-04-22T20:02:01.463Z,13.28
2023-04-22T20:04:29.965Z,13.33
2023-04-22T20:07:00.778Z,13.23
2023-04-22T20:09:34.174Z,13.25
2023-04-22T20:12:02.807Z,13.17
2023-04-22T20:14:31.906Z,13.23
2023-04-22T20:17:01.620Z,13.24
2023-04-22T20:19:30.775Z,13.25
2023-04-22T20:21:59.731Z,13.03
2023-04-22T20:24:29.173Z,12.83
2023-04-22T20:26:57.164Z,12.98
2023-04-22T20:29:25.560Z,13.05
2023-04-22T20:31:55.576Z,13.12
2023-04-22T20:34:26.084Z,13.15
2023-04-22T20:36:54.869Z,13.13
2023-04-22T20:39:23.803Z,13.23
2023-04-22T20:41:55.641Z,13.27
2023-04-22T20:44:23.536Z,13.23
2023-04-22T20:46:51.509Z,13.20
2023-04-22T20:49:19.350Z,13.24
2023-04-22T20:51:48.514Z,13.46
2023-04-22T20:54:27.939Z,13.38
2023-04-22T20:56:57.766Z,13.47
2023-04-22T20:59:25.607Z,13.34
2023-04-22T21:01:54.828Z,13.24
2023-04-22T21:04:23.865Z,13.00
2023-04-22T21:06:54.597Z,13.22
2023-04-22T21:09:24.993Z,13.21
2023-04-22T21:11:53.461Z,13.26
2023-04-22T21:14:22.268Z,13.21
2023-04-22T21:16:57.886Z,13.25
2023-04-22T21:19:27.214Z,13.34
2023-04-22T21:21:57.731Z,13.41
2023-04-22T21:24:26.219Z,13.37
2023-04-22T21:26:54.824Z,13.21
2023-04-22T21:29:23.042Z,13.25
2023-04-22T21:32:04.943Z,12.90
2023-04-22T21:34:36.282Z,12.78
2023-04-22T21:37:06.401Z,12.75
2023-04-22T21:39:34.214Z,12.46
2023-04-22T21:42:07.447Z,12.68
2023-04-22T21:44:36.307Z,12.79
2023-04-22T21:47:04.519Z,12.87
2023-04-22T21:49:32.518Z,12.90
2023-04-22T21:52:01.093Z,12.84
2023-04-22T21:54:30.704Z,12.85
2023-04-22T21:56:58.754Z,12.77
2023-04-22T21:59:26.573Z,12.58
2023-04-22T22:01:54.492Z,12.46
2023-04-22T22:04:22.440Z,12.46
2023-04-22T22:06:50.358Z,12.57
2023-04-22T22:09:18.182Z,12.59
2023-04-22T22:11:47.385Z,12.59
2023-04-22T22:14:15.563Z,12.78
2023-04-22T22:16:43.981Z,12.65
2023-04-22T22:19:12.253Z,12.56
2023-04-22T22:21:40.414Z,12.56
2023-04-22T22:24:09.461Z,12.53
2023-04-22T22:26:37.454Z,12.54
2023-04-22T22:29:06.514Z,12.56
2023-04-22T22:31:34.341Z,12.62
2023-04-22T22:34:02.088Z,12.73
2023-04-22T22:36:29.804Z,12.70
2023-04-22T22:38:57.680Z,12.88
2023-04-22T22:41:25.510Z,12.94
2023-04-22T22:43:53.326Z,12.85
2023-04-22T22:46:22.591Z,12.92
2023-04-22T22:48:50.675Z,12.79
2023-04-22T22:51:18.783Z,12.80
2023-04-22T22:53:46.761Z,12.73
2023-04-22T22:56:15.400Z,12.74
2023-04-22T22:58:43.212Z,12.74
2023-04-22T23:01:11.060Z,12.80
2023-04-22T23:03:40.400Z,12.85
2023-04-22T23:06:08.810Z,12.90
2023-04-22T23:08:36.618Z,12.96
2023-04-22T23:11:04.462Z,12.97
2023-04-22T23:13:32.324Z,12.97
2023-04-22T23:16:00.656Z,12.87
2023-04-22T23:18:29.737Z,12.80
2023-04-22T23:21:01.545Z,12.84
2023-04-22T23:23:30.175Z,12.78
2023-04-22T23:26:00.779Z,12.85
2023-04-22T23:28:29.182Z,12.92
2023-04-22T23:30:57.157Z,12.85
2023-04-22T23:33:26.245Z,12.92
2023-04-22T23:35:54.281Z,12.96
2023-04-22T23:38:24.087Z,13.03
2023-04-22T23:40:51.873Z,12.74
2023-04-22T23:43:19.646Z,12.76
2023-04-22T23:45:47.368Z,12.81
2023-04-22T23:48:15.129Z,12.90
2023-04-22T23:50:43.002Z,12.64
2023-04-22T23:53:10.758Z,12.59
2023-04-22T23:55:41.086Z,12.70
2023-04-22T23:58:09.120Z,12.66
